sensor_id;sensor_type;location;lat;lon;timestamp;temperature;humidity
56103;DHT22;41970;48.774;9.280;2023-12-20T00:02:20;6.10;99.90
56103;DHT22;41970;48.774;9.280;2023-12-20T00:04:46;6.10;99.90
56103;DHT22;41970;48.774;9.280;2023-12-20T00:07:12;6.10;99.90
56103;DHT22;41970;48.774;9.280;2023-12-20T00:09:38;6.30;99.90
56103;DHT22;41970;48.774;9.280;2023-12-20T00:12:04;6.30;99.90
56103;DHT22;41970;48.774;9.280;2023-12-20T00:14:30;6.30;99.90
56103;DHT22;41970;48.774;9.280;2023-12-20T00:16:55;6.30;99.90
56103;DHT22;41970;48.774;9.280;2023-12-20T00:19:21;6.30;99.90
56103;DHT22;41970;48.774;9.280;2023-12-20T00:21:47;6.30;99.90
56103;DHT22;41970;48.774;9.280;2023-12-20T00:24:13;6.20;99.90
56103;DHT22;41970;48.774;9.280;2023-12-20T00:26:38;6.30;99.90
56103;DHT22;41970;48.774;9.280;2023-12-20T00:29:04;6.40;99.90
56103;DHT22;41970;48.774;9.280;2023-12-20T00:31:30;6.70;99.90
56103;DHT22;41970;48.774;9.280;2023-12-20T00:33:56;6.80;99.90
56103;DHT22;41970;48.774;9.280;2023-12-20T00:36:22;7.00;99.90
56103;DHT22;41970;48.774;9.280;2023-12-20T00:38:47;7.00;99.90
56103;DHT22;41970;48.774;9.280;2023-12-20T00:41:13;7.10;99.90
56103;DHT22;41970;48.774;9.280;2023-12-20T00:43:39;7.20;99.90
56103;DHT22;41970;48.774;9.280;2023-12-20T00:46:05;7.20;99.90
56103;DHT22;41970;48.774;9.280;2023-12-20T00:48:31;7.10;99.90
56103;DHT22;41970;48.774;9.280;2023-12-20T00:50:57;7.20;99.90
56103;DHT22;41970;48.774;9.280;2023-12-20T00:53:23;7.20;99.90
56103;DHT22;41970;48.774;9.280;2023-12-20T00:55:49;7.20;99.90
56103;DHT22;41970;48.774;9.280;2023-12-20T00:58:15;7.10;99.90
56103;DHT22;41970;48.774;9.280;2023-12-20T01:00:41;7.00;99.90
56103;DHT22;41970;48.774;9.280;2023-12-20T01:03:08;7.00;99.90
56103;DHT22;41970;48.774;9.280;2023-12-20T01:05:34;7.10;99.90
56103;DHT22;41970;48.774;9.280;2023-12-20T01:08:00;7.20;99.90
56103;DHT22;41970;48.774;9.280;2023-12-20T01:10:28;7.20;99.90
56103;DHT22;41970;48.774;9.280;2023-12-20T01:12:55;7.20;99.90
56103;DHT22;41970;48.774;9.280;2023-12-20T01:15:20;7.20;99.90
56103;DHT22;41970;48.774;9.280;2023-12-20T01:17:46;7.20;99.90
56103;DHT22;41970;48.774;9.280;2023-12-20T01:20:13;7.20;99.90
56103;DHT22;41970;48.774;9.280;2023-12-20T01:22:38;7.20;99.90
56103;DHT22;41970;48.774;9.280;2023-12-20T01:25:04;7.30;99.90
56103;DHT22;41970;48.774;9.280;2023-12-20T01:27:30;7.20;99.90
56103;DHT22;41970;48.774;9.280;2023-12-20T01:29:57;7.10;99.90
56103;DHT22;41970;48.774;9.280;2023-12-20T01:32:22;7.20;99.90
56103;DHT22;41970;48.774;9.280;2023-12-20T01:34:48;7.20;99.90
56103;DHT22;41970;48.774;9.280;2023-12-20T01:37:14;7.30;99.90
56103;DHT22;41970;48.774;9.280;2023-12-20T01:39:40;7.30;99.90
56103;DHT22;41970;48.774;9.280;2023-12-20T01:42:06;7.30;99.90
56103;DHT22;41970;48.774;9.280;2023-12-20T01:44:32;7.30;99.90
56103;DHT22;41970;48.774;9.280;2023-12-20T01:46:57;7.40;99.90
56103;DHT22;41970;48.774;9.280;2023-12-20T01:49:24;7.40;99.90
56103;DHT22;41970;48.774;9.280;2023-12-20T01:51:50;7.40;99.90
56103;DHT22;41970;48.774;9.280;2023-12-20T01:54:16;7.50;99.90
56103;DHT22;41970;48.774;9.280;2023-12-20T01:56:43;7.50;99.90
56103;DHT22;41970;48.774;9.280;2023-12-20T01:59:09;7.50;99.90
56103;DHT22;41970;48.774;9.280;2023-12-20T02:01:35;7.50;99.90
56103;DHT22;41970;48.774;9.280;2023-12-20T02:04:02;7.50;99.90
56103;DHT22;41970;48.774;9.280;2023-12-20T02:06:30;7.50;99.90
56103;DHT22;41970;48.774;9.280;2023-12-20T02:08:59;7.40;99.90
56103;DHT22;41970;48.774;9.280;2023-12-20T02:11:26;7.40;99.90
56103;DHT22;41970;48.774;9.280;2023-12-20T02:13:52;7.40;99.90
56103;DHT22;41970;48.774;9.280;2023-12-20T02:16:18;7.40;99.90
56103;DHT22;41970;48.774;9.280;2023-12-20T02:18:44;7.50;99.90
56103;DHT22;41970;48.774;9.280;2023-12-20T02:21:10;7.50;99.90
56103;DHT22;41970;48.774;9.280;2023-12-20T02:23:36;7.50;99.90
56103;DHT22;41970;48.774;9.280;2023-12-20T02:26:03;7.50;99.90
56103;DHT22;41970;48.774;9.280;2023-12-20T02:28:30;7.50;99.90
56103;DHT22;41970;48.774;9.280;2023-12-20T02:30:57;7.50;99.90
56103;DHT22;41970;48.774;9.280;2023-12-20T02:33:23;7.40;99.90
56103;DHT22;41970;48.774;9.280;2023-12-20T02:35:49;7.50;99.90
56103;DHT22;41970;48.774;9.280;2023-12-20T02:38:15;7.50;99.90
56103;DHT22;41970;48.774;9.280;2023-12-20T02:40:41;7.50;99.90
56103;DHT22;41970;48.774;9.280;2023-12-20T02:43:07;7.50;99.90
56103;DHT22;41970;48.774;9.280;2023-12-20T02:45:33;7.50;99.90
56103;DHT22;41970;48.774;9.280;2023-12-20T02:47:58;7.50;99.90
56103;DHT22;41970;48.774;9.280;2023-12-20T02:50:24;7.50;99.90
56103;DHT22;41970;48.774;9.280;2023-12-20T02:52:50;7.50;99.90
56103;DHT22;41970;48.774;9.280;2023-12-20T02:55:16;7.50;99.90
56103;DHT22;41970;48.774;9.280;2023-12-20T02:57:42;7.50;99.90
56103;DHT22;41970;48.774;9.280;2023-12-20T03:00:11;7.50;99.90
56103;DHT22;41970;48.774;9.280;2023-12-20T03:02:37;7.50;99.90
56103;DHT22;41970;48.774;9.280;2023-12-20T03:05:03;7.50;99.90
56103;DHT22;41970;48.774;9.280;2023-12-20T03:07:29;7.50;99.90
56103;DHT22;41970;48.774;9.280;2023-12-20T03:09:55;7.40;99.90
56103;DHT22;41970;48.774;9.280;2023-12-20T03:12:21;7.40;99.90
56103;DHT22;41970;48.774;9.280;2023-12-20T03:14:47;7.40;99.90
56103;DHT22;41970;48.774;9.280;2023-12-20T03:17:13;7.50;99.90
56103;DHT22;41970;48.774;9.280;2023-12-20T03:19:39;7.40;99.90
56103;DHT22;41970;48.774;9.280;2023-12-20T03:22:05;7.40;99.90
56103;DHT22;41970;48.774;9.280;2023-12-20T03:24:30;7.40;99.90
56103;DHT22;41970;48.774;9.280;2023-12-20T03:26:56;7.50;99.90
56103;DHT22;41970;48.774;9.280;2023-12-20T03:29:22;7.40;99.90
56103;DHT22;41970;48.774;9.280;2023-12-20T03:31:48;7.50;99.90
56103;DHT22;41970;48.774;9.280;2023-12-20T03:34:13;7.50;99.90
56103;DHT22;41970;48.774;9.280;2023-12-20T03:36:40;7.50;99.90
56103;DHT22;41970;48.774;9.280;2023-12-20T03:39:06;7.50;99.90
56103;DHT22;41970;48.774;9.280;2023-12-20T03:41:31;7.40;99.90
56103;DHT22;41970;48.774;9.280;2023-12-20T03:43:57;7.40;99.90
56103;DHT22;41970;48.774;9.280;2023-12-20T03:46:23;7.40;99.90
56103;DHT22;41970;48.774;9.280;2023-12-20T03:48:49;7.40;99.90
56103;DHT22;41970;48.774;9.280;2023-12-20T03:51:14;7.40;99.90
56103;DHT22;41970;48.774;9.280;2023-12-20T03:53:40;7.30;99.90
56103;DHT22;41970;48.774;9.280;2023-12-20T03:56:06;7.20;99.90
56103;DHT22;41970;48.774;9.280;2023-12-20T03:58:32;7.20;99.90
56103;DHT22;41970;48.774;9.280;2023-12-20T04:00:58;7.30;99.90
56103;DHT22;41970;48.774;9.280;2023-12-20T04:03:23;7.20;99.90
56103;DHT22;41970;48.774;9.280;2023-12-20T04:05:49;7.10;99.90
56103;DHT22;41970;48.774;9.280;2023-12-20T04:08:15;7.00;99.90
56103;DHT22;41970;48.774;9.280;2023-12-20T04:10:41;7.10;99.90
56103;DHT22;41970;48.774;9.280;2023-12-20T04:13:07;7.10;99.90
56103;DHT22;41970;48.774;9.280;2023-12-20T04:15:32;7.00;99.90
56103;DHT22;41970;48.774;9.280;2023-12-20T04:17:58;7.00;99.90
56103;DHT22;41970;48.774;9.280;2023-12-20T04:20:24;7.10;99.90
56103;DHT22;41970;48.774;9.280;2023-12-20T04:22:50;7.10;99.90
56103;DHT22;41970;48.774;9.280;2023-12-20T04:25:16;7.10;99.90
56103;DHT22;41970;48.774;9.280;2023-12-20T04:27:41;7.20;99.90
56103;DHT22;41970;48.774;9.280;2023-12-20T04:30:07;7.20;99.90
56103;DHT22;41970;48.774;9.280;2023-12-20T04:32:34;7.30;99.90
56103;DHT22;41970;48.774;9.280;2023-12-20T04:35:00;7.30;99.90
56103;DHT22;41970;48.774;9.280;2023-12-20T04:37:26;7.30;99.90
56103;DHT22;41970;48.774;9.280;2023-12-20T04:39:51;7.30;99.90
56103;DHT22;41970;48.774;9.280;2023-12-20T04:42:17;7.30;99.90
56103;DHT22;41970;48.774;9.280;2023-12-20T04:44:43;7.20;99.90
56103;DHT22;41970;48.774;9.280;2023-12-20T04:47:09;7.20;99.90
56103;DHT22;41970;48.774;9.280;2023-12-20T04:49:35;7.20;99.90
56103;DHT22;41970;48.774;9.280;2023-12-20T04:52:01;7.10;99.90
56103;DHT22;41970;48.774;9.280;2023-12-20T04:54:26;7.10;99.90
56103;DHT22;41970;48.774;9.280;2023-12-20T04:56:52;7.10;99.90
56103;DHT22;41970;48.774;9.280;2023-12-20T04:59:18;7.10;99.90
56103;DHT22;41970;48.774;9.280;2023-12-20T05:01:44;7.20;99.90
56103;DHT22;41970;48.774;9.280;2023-12-20T05:04:10;7.10;99.90
56103;DHT22;41970;48.774;9.280;2023-12-20T05:06:35;7.20;99.90
56103;DHT22;41970;48.774;9.280;2023-12-20T05:09:01;7.20;99.90
56103;DHT22;41970;48.774;9.280;2023-12-20T05:11:27;7.20;99.90
56103;DHT22;41970;48.774;9.280;2023-12-20T05:13:53;7.30;99.90
56103;DHT22;41970;48.774;9.280;2023-12-20T05:16:18;7.30;99.90
56103;DHT22;41970;48.774;9.280;2023-12-20T05:18:45;7.30;99.90
56103;DHT22;41970;48.774;9.280;2023-12-20T05:21:11;7.30;99.90
56103;DHT22;41970;48.774;9.280;2023-12-20T05:23:37;7.30;99.90
56103;DHT22;41970;48.774;9.280;2023-12-20T05:26:03;7.30;99.90
56103;DHT22;41970;48.774;9.280;2023-12-20T05:28:28;7.30;99.90
56103;DHT22;41970;48.774;9.280;2023-12-20T05:30:54;7.30;99.90
56103;DHT22;41970;48.774;9.280;2023-12-20T05:33:20;7.30;99.90
56103;DHT22;41970;48.774;9.280;2023-12-20T05:35:46;7.30;99.90
56103;DHT22;41970;48.774;9.280;2023-12-20T05:38:12;7.30;99.90
56103;DHT22;41970;48.774;9.280;2023-12-20T05:40:38;7.30;99.90
56103;DHT22;41970;48.774;9.280;2023-12-20T05:43:04;7.30;99.90
56103;DHT22;41970;48.774;9.280;2023-12-20T05:45:29;7.30;99.90
56103;DHT22;41970;48.774;9.280;2023-12-20T05:47:55;7.40;99.90
56103;DHT22;41970;48.774;9.280;2023-12-20T05:50:21;7.40;99.90
56103;DHT22;41970;48.774;9.280;2023-12-20T05:52:47;7.40;99.90
56103;DHT22;41970;48.774;9.280;2023-12-20T05:55:12;7.40;99.90
56103;DHT22;41970;48.774;9.280;2023-12-20T05:57:38;7.40;99.90
56103;DHT22;41970;48.774;9.280;2023-12-20T06:00:04;7.40;99.90
56103;DHT22;41970;48.774;9.280;2023-12-20T06:02:31;7.40;99.90
56103;DHT22;41970;48.774;9.280;2023-12-20T06:04:58;7.30;99.90
56103;DHT22;41970;48.774;9.280;2023-12-20T06:07:24;7.30;99.90
56103;DHT22;41970;48.774;9.280;2023-12-20T06:09:49;7.30;99.90
56103;DHT22;41970;48.774;9.280;2023-12-20T06:12:15;7.30;99.90
56103;DHT22;41970;48.774;9.280;2023-12-20T06:14:41;7.30;99.90
56103;DHT22;41970;48.774;9.280;2023-12-20T06:17:07;7.30;99.90
56103;DHT22;41970;48.774;9.280;2023-12-20T06:19:32;7.30;99.90
56103;DHT22;41970;48.774;9.280;2023-12-20T06:21:58;7.30;99.90
56103;DHT22;41970;48.774;9.280;2023-12-20T06:24:24;7.40;99.90
56103;DHT22;41970;48.774;9.280;2023-12-20T06:26:53;7.40;99.90
56103;DHT22;41970;48.774;9.280;2023-12-20T06:29:20;7.40;99.90
56103;DHT22;41970;48.774;9.280;2023-12-20T06:31:46;7.30;99.90
56103;DHT22;41970;48.774;9.280;2023-12-20T06:34:12;7.20;99.90
56103;DHT22;41970;48.774;9.280;2023-12-20T06:36:37;7.20;99.90
56103;DHT22;41970;48.774;9.280;2023-12-20T06:39:03;7.30;99.90
56103;DHT22;41970;48.774;9.280;2023-12-20T06:41:30;7.30;99.90
56103;DHT22;41970;48.774;9.280;2023-12-20T06:43:56;7.30;99.90
56103;DHT22;41970;48.774;9.280;2023-12-20T06:46:22;7.40;99.90
56103;DHT22;41970;48.774;9.280;2023-12-20T06:48:47;7.40;99.90
56103;DHT22;41970;48.774;9.280;2023-12-20T06:51:17;7.40;99.90
56103;DHT22;41970;48.774;9.280;2023-12-20T06:53:45;7.40;99.90
56103;DHT22;41970;48.774;9.280;2023-12-20T06:56:11;7.40;99.90
56103;DHT22;41970;48.774;9.280;2023-12-20T06:58:38;7.40;99.90
56103;DHT22;41970;48.774;9.280;2023-12-20T07:01:04;7.40;99.90
56103;DHT22;41970;48.774;9.280;2023-12-20T07:03:30;7.40;99.90
56103;DHT22;41970;48.774;9.280;2023-12-20T07:05:56;7.40;99.90
56103;DHT22;41970;48.774;9.280;2023-12-20T07:08:22;7.40;99.90
56103;DHT22;41970;48.774;9.280;2023-12-20T07:10:48;7.40;99.90
56103;DHT22;41970;48.774;9.280;2023-12-20T07:13:13;7.30;99.90
56103;DHT22;41970;48.774;9.280;2023-12-20T07:15:39;7.30;99.90
56103;DHT22;41970;48.774;9.280;2023-12-20T07:18:05;7.30;99.90
56103;DHT22;41970;48.774;9.280;2023-12-20T07:20:32;7.30;99.90
56103;DHT22;41970;48.774;9.280;2023-12-20T07:22:57;7.30;99.90
56103;DHT22;41970;48.774;9.280;2023-12-20T07:25:23;7.30;99.90
56103;DHT22;41970;48.774;9.280;2023-12-20T07:27:49;7.30;99.90
56103;DHT22;41970;48.774;9.280;2023-12-20T07:30:15;7.20;99.90
56103;DHT22;41970;48.774;9.280;2023-12-20T07:32:41;7.20;99.90
56103;DHT22;41970;48.774;9.280;2023-12-20T07:35:07;7.20;99.90
56103;DHT22;41970;48.774;9.280;2023-12-20T07:37:32;7.30;99.90
56103;DHT22;41970;48.774;9.280;2023-12-20T07:39:58;7.30;99.90
56103;DHT22;41970;48.774;9.280;2023-12-20T07:42:24;7.30;99.90
56103;DHT22;41970;48.774;9.280;2023-12-20T07:44:51;7.30;99.90
56103;DHT22;41970;48.774;9.280;2023-12-20T07:47:17;7.10;99.90
56103;DHT22;41970;48.774;9.280;2023-12-20T07:49:51;6.90;99.90
56103;DHT22;41970;48.774;9.280;2023-12-20T07:52:19;6.80;99.90
56103;DHT22;41970;48.774;9.280;2023-12-20T07:54:45;6.80;99.90
56103;DHT22;41970;48.774;9.280;2023-12-20T07:57:12;6.90;99.90
56103;DHT22;41970;48.774;9.280;2023-12-20T07:59:37;6.80;99.90
56103;DHT22;41970;48.774;9.280;2023-12-20T08:02:04;6.80;99.90
56103;DHT22;41970;48.774;9.280;2023-12-20T08:04:30;6.50;99.90
56103;DHT22;41970;48.774;9.280;2023-12-20T08:06:56;6.40;99.90
56103;DHT22;41970;48.774;9.280;2023-12-20T08:09:21;6.40;99.90
56103;DHT22;41970;48.774;9.280;2023-12-20T08:11:48;6.50;99.90
56103;DHT22;41970;48.774;9.280;2023-12-20T08:14:14;6.50;99.90
56103;DHT22;41970;48.774;9.280;2023-12-20T08:16:40;6.50;99.90
56103;DHT22;41970;48.774;9.280;2023-12-20T08:19:05;6.60;99.90
56103;DHT22;41970;48.774;9.280;2023-12-20T08:21:31;6.60;99.90
56103;DHT22;41970;48.774;9.280;2023-12-20T08:23:57;6.60;99.90
56103;DHT22;41970;48.774;9.280;2023-12-20T08:26:23;6.60;99.90
56103;DHT22;41970;48.774;9.280;2023-12-20T08:28:50;6.70;99.90
56103;DHT22;41970;48.774;9.280;2023-12-20T08:31:16;6.60;99.90
56103;DHT22;41970;48.774;9.280;2023-12-20T08:33:47;6.50;99.90
56103;DHT22;41970;48.774;9.280;2023-12-20T08:36:13;6.40;99.90
56103;DHT22;41970;48.774;9.280;2023-12-20T08:38:39;6.40;99.90
56103;DHT22;41970;48.774;9.280;2023-12-20T08:41:05;6.40;99.90
56103;DHT22;41970;48.774;9.280;2023-12-20T08:43:31;6.40;99.90
56103;DHT22;41970;48.774;9.280;2023-12-20T08:45:57;6.40;99.90
56103;DHT22;41970;48.774;9.280;2023-12-20T08:48:23;6.40;99.90
56103;DHT22;41970;48.774;9.280;2023-12-20T08:50:49;6.20;99.90
56103;DHT22;41970;48.774;9.280;2023-12-20T08:53:17;6.10;99.90
56103;DHT22;41970;48.774;9.280;2023-12-20T08:55:43;6.20;99.90
56103;DHT22;41970;48.774;9.280;2023-12-20T08:58:09;6.20;99.90
56103;DHT22;41970;48.774;9.280;2023-12-20T09:00:35;6.20;99.90
56103;DHT22;41970;48.774;9.280;2023-12-20T09:03:04;6.50;99.90
56103;DHT22;41970;48.774;9.280;2023-12-20T09:05:30;6.70;99.90
56103;DHT22;41970;48.774;9.280;2023-12-20T09:07:56;6.90;99.90
56103;DHT22;41970;48.774;9.280;2023-12-20T09:10:21;7.20;99.90
56103;DHT22;41970;48.774;9.280;2023-12-20T09:12:49;7.40;99.90
56103;DHT22;41970;48.774;9.280;2023-12-20T09:15:15;7.50;99.90
56103;DHT22;41970;48.774;9.280;2023-12-20T09:17:41;7.60;99.90
56103;DHT22;41970;48.774;9.280;2023-12-20T09:20:07;7.50;99.90
56103;DHT22;41970;48.774;9.280;2023-12-20T09:22:34;7.50;99.90
56103;DHT22;41970;48.774;9.280;2023-12-20T09:25:00;7.50;99.90
56103;DHT22;41970;48.774;9.280;2023-12-20T09:27:27;7.30;99.90
56103;DHT22;41970;48.774;9.280;2023-12-20T09:29:53;7.30;99.90
56103;DHT22;41970;48.774;9.280;2023-12-20T09:32:19;7.30;99.90
56103;DHT22;41970;48.774;9.280;2023-12-20T09:34:48;7.20;99.90
56103;DHT22;41970;48.774;9.280;2023-12-20T09:37:14;7.20;99.90
56103;DHT22;41970;48.774;9.280;2023-12-20T09:39:40;7.10;99.90
56103;DHT22;41970;48.774;9.280;2023-12-20T09:42:07;7.00;99.90
56103;DHT22;41970;48.774;9.280;2023-12-20T09:44:33;7.00;99.90
56103;DHT22;41970;48.774;9.280;2023-12-20T09:47:04;6.90;99.90
56103;DHT22;41970;48.774;9.280;2023-12-20T09:49:30;7.00;99.90
56103;DHT22;41970;48.774;9.280;2023-12-20T09:51:57;7.00;99.90
56103;DHT22;41970;48.774;9.280;2023-12-20T09:54:23;7.10;99.90
56103;DHT22;41970;48.774;9.280;2023-12-20T09:56:49;7.10;99.90
56103;DHT22;41970;48.774;9.280;2023-12-20T09:59:15;7.00;99.90
56103;DHT22;41970;48.774;9.280;2023-12-20T10:01:42;7.00;99.90
56103;DHT22;41970;48.774;9.280;2023-12-20T10:04:10;7.10;99.90
56103;DHT22;41970;48.774;9.280;2023-12-20T10:06:40;7.20;99.90
56103;DHT22;41970;48.774;9.280;2023-12-20T10:09:05;7.30;99.90
56103;DHT22;41970;48.774;9.280;2023-12-20T10:11:31;7.30;99.90
56103;DHT22;41970;48.774;9.280;2023-12-20T10:14:01;7.30;99.90
56103;DHT22;41970;48.774;9.280;2023-12-20T10:16:27;7.40;99.90
56103;DHT22;41970;48.774;9.280;2023-12-20T10:18:54;7.50;99.90
56103;DHT22;41970;48.774;9.280;2023-12-20T10:21:20;7.40;99.90
56103;DHT22;41970;48.774;9.280;2023-12-20T10:23:46;7.30;99.90
56103;DHT22;41970;48.774;9.280;2023-12-20T10:26:23;7.20;99.90
56103;DHT22;41970;48.774;9.280;2023-12-20T10:29:00;7.20;99.90
56103;DHT22;41970;48.774;9.280;2023-12-20T10:31:28;7.20;99.90
56103;DHT22;41970;48.774;9.280;2023-12-20T10:33:59;7.30;99.90
56103;DHT22;41970;48.774;9.280;2023-12-20T10:36:27;7.20;99.90
56103;DHT22;41970;48.774;9.280;2023-12-20T10:38:55;7.10;99.90
56103;DHT22;41970;48.774;9.280;2023-12-20T10:41:31;7.00;99.90
56103;DHT22;41970;48.774;9.280;2023-12-20T10:44:02;7.00;99.90
56103;DHT22;41970;48.774;9.280;2023-12-20T10:46:29;7.00;99.90
56103;DHT22;41970;48.774;9.280;2023-12-20T10:48:56;6.90;99.90
56103;DHT22;41970;48.774;9.280;2023-12-20T10:51:22;6.90;99.90
56103;DHT22;41970;48.774;9.280;2023-12-20T10:53:51;7.00;99.90
56103;DHT22;41970;48.774;9.280;2023-12-20T10:56:18;7.00;99.90
56103;DHT22;41970;48.774;9.280;2023-12-20T10:58:45;7.00;99.90
56103;DHT22;41970;48.774;9.280;2023-12-20T11:01:16;7.00;99.90
56103;DHT22;41970;48.774;9.280;2023-12-20T11:03:52;6.90;99.90
56103;DHT22;41970;48.774;9.280;2023-12-20T11:06:40;6.90;99.90
56103;DHT22;41970;48.774;9.280;2023-12-20T11:09:39;6.80;99.90
56103;DHT22;41970;48.774;9.280;2023-12-20T11:12:37;6.70;99.90
56103;DHT22;41970;48.774;9.280;2023-12-20T11:15:06;6.60;99.90
56103;DHT22;41970;48.774;9.280;2023-12-20T11:17:33;6.60;99.90
56103;DHT22;41970;48.774;9.280;2023-12-20T11:22:30;6.70;99.90
56103;DHT22;41970;48.774;9.280;2023-12-20T11:27:30;6.80;99.90
56103;DHT22;41970;48.774;9.280;2023-12-20T11:29:57;6.90;99.90
56103;DHT22;41970;48.774;9.280;2023-12-20T11:35:01;6.90;99.90
56103;DHT22;41970;48.774;9.280;2023-12-20T11:37:30;7.00;99.90
56103;DHT22;41970;48.774;9.280;2023-12-20T11:40:02;7.00;99.90
56103;DHT22;41970;48.774;9.280;2023-12-20T11:42:33;7.00;99.90
56103;DHT22;41970;48.774;9.280;2023-12-20T11:45:02;7.00;99.90
56103;DHT22;41970;48.774;9.280;2023-12-20T11:47:30;6.90;99.90
56103;DHT22;41970;48.774;9.280;2023-12-20T11:49:56;6.80;99.90
56103;DHT22;41970;48.774;9.280;2023-12-20T11:52:22;6.70;99.90
56103;DHT22;41970;48.774;9.280;2023-12-20T11:54:48;6.70;99.90
56103;DHT22;41970;48.774;9.280;2023-12-20T11:57:14;6.70;99.90
56103;DHT22;41970;48.774;9.280;2023-12-20T11:59:40;6.70;99.90
56103;DHT22;41970;48.774;9.280;2023-12-20T12:02:06;6.70;99.90
56103;DHT22;41970;48.774;9.280;2023-12-20T12:04:32;6.60;99.90
56103;DHT22;41970;48.774;9.280;2023-12-20T12:06:57;6.60;99.90
56103;DHT22;41970;48.774;9.280;2023-12-20T12:09:23;6.50;99.90
56103;DHT22;41970;48.774;9.280;2023-12-20T12:11:49;6.50;99.90
56103;DHT22;41970;48.774;9.280;2023-12-20T12:14:15;6.40;99.90
56103;DHT22;41970;48.774;9.280;2023-12-20T12:16:44;6.40;99.90
56103;DHT22;41970;48.774;9.280;2023-12-20T12:19:21;6.50;99.90
56103;DHT22;41970;48.774;9.280;2023-12-20T12:21:47;6.50;99.90
56103;DHT22;41970;48.774;9.280;2023-12-20T12:24:13;6.60;99.90
56103;DHT22;41970;48.774;9.280;2023-12-20T12:26:40;6.70;99.90
56103;DHT22;41970;48.774;9.280;2023-12-20T12:29:09;6.80;99.90
56103;DHT22;41970;48.774;9.280;2023-12-20T12:31:35;6.90;99.90
56103;DHT22;41970;48.774;9.280;2023-12-20T12:34:01;7.00;99.90
56103;DHT22;41970;48.774;9.280;2023-12-20T12:36:28;7.20;99.90
56103;DHT22;41970;48.774;9.280;2023-12-20T12:38:57;7.30;99.90
56103;DHT22;41970;48.774;9.280;2023-12-20T12:41:23;7.20;99.90
56103;DHT22;41970;48.774;9.280;2023-12-20T12:43:49;7.30;99.90
56103;DHT22;41970;48.774;9.280;2023-12-20T12:46:15;7.40;99.90
56103;DHT22;41970;48.774;9.280;2023-12-20T12:48:40;7.40;99.90
56103;DHT22;41970;48.774;9.280;2023-12-20T12:51:07;7.40;99.90
56103;DHT22;41970;48.774;9.280;2023-12-20T12:53:38;7.50;99.90
56103;DHT22;41970;48.774;9.280;2023-12-20T12:56:04;7.50;99.90
56103;DHT22;41970;48.774;9.280;2023-12-20T12:58:30;7.60;99.90
56103;DHT22;41970;48.774;9.280;2023-12-20T13:00:56;7.60;99.90
56103;DHT22;41970;48.774;9.280;2023-12-20T13:03:22;7.60;99.90
56103;DHT22;41970;48.774;9.280;2023-12-20T13:05:50;7.60;99.90
56103;DHT22;41970;48.774;9.280;2023-12-20T13:08:16;7.50;99.90
56103;DHT22;41970;48.774;9.280;2023-12-20T13:10:43;7.50;99.90
56103;DHT22;41970;48.774;9.280;2023-12-20T13:13:12;7.50;99.90
56103;DHT22;41970;48.774;9.280;2023-12-20T13:15:38;7.50;99.90
56103;DHT22;41970;48.774;9.280;2023-12-20T13:18:04;7.50;99.90
56103;DHT22;41970;48.774;9.280;2023-12-20T13:20:31;7.60;99.90
56103;DHT22;41970;48.774;9.280;2023-12-20T13:22:57;7.50;99.90
56103;DHT22;41970;48.774;9.280;2023-12-20T13:25:23;7.50;99.90
56103;DHT22;41970;48.774;9.280;2023-12-20T13:27:49;7.50;99.90
56103;DHT22;41970;48.774;9.280;2023-12-20T13:30:16;7.50;99.90
56103;DHT22;41970;48.774;9.280;2023-12-20T13:32:42;7.50;99.90
56103;DHT22;41970;48.774;9.280;2023-12-20T13:35:08;7.40;99.90
56103;DHT22;41970;48.774;9.280;2023-12-20T13:37:35;7.50;99.90
56103;DHT22;41970;48.774;9.280;2023-12-20T13:40:01;7.60;99.90
56103;DHT22;41970;48.774;9.280;2023-12-20T13:42:28;7.60;99.90
56103;DHT22;41970;48.774;9.280;2023-12-20T13:44:54;7.50;99.90
56103;DHT22;41970;48.774;9.280;2023-12-20T13:47:21;7.40;99.90
56103;DHT22;41970;48.774;9.280;2023-12-20T13:49:48;7.30;99.90
56103;DHT22;41970;48.774;9.280;2023-12-20T13:52:13;7.40;99.90
56103;DHT22;41970;48.774;9.280;2023-12-20T13:54:39;7.30;99.90
56103;DHT22;41970;48.774;9.280;2023-12-20T13:57:05;7.20;99.90
56103;DHT22;41970;48.774;9.280;2023-12-20T13:59:31;7.00;99.90
56103;DHT22;41970;48.774;9.280;2023-12-20T14:01:56;6.90;99.90
56103;DHT22;41970;48.774;9.280;2023-12-20T14:04:22;6.80;99.90
56103;DHT22;41970;48.774;9.280;2023-12-20T14:06:48;7.00;99.90
56103;DHT22;41970;48.774;9.280;2023-12-20T14:09:17;7.00;99.90
56103;DHT22;41970;48.774;9.280;2023-12-20T14:11:43;7.10;99.90
56103;DHT22;41970;48.774;9.280;2023-12-20T14:14:09;7.00;99.90
56103;DHT22;41970;48.774;9.280;2023-12-20T14:16:35;7.10;99.90
56103;DHT22;41970;48.774;9.280;2023-12-20T14:19:01;7.10;99.90
56103;DHT22;41970;48.774;9.280;2023-12-20T14:21:28;7.10;99.90
56103;DHT22;41970;48.774;9.280;2023-12-20T14:23:54;7.10;99.90
56103;DHT22;41970;48.774;9.280;2023-12-20T14:26:20;7.30;99.90
56103;DHT22;41970;48.774;9.280;2023-12-20T14:28:46;7.30;99.90
56103;DHT22;41970;48.774;9.280;2023-12-20T14:31:12;7.20;99.90
56103;DHT22;41970;48.774;9.280;2023-12-20T14:33:37;7.20;99.90
56103;DHT22;41970;48.774;9.280;2023-12-20T14:36:05;7.30;99.90
56103;DHT22;41970;48.774;9.280;2023-12-20T14:38:31;7.20;99.90
56103;DHT22;41970;48.774;9.280;2023-12-20T14:40:57;7.30;99.90
56103;DHT22;41970;48.774;9.280;2023-12-20T14:43:23;7.40;99.90
56103;DHT22;41970;48.774;9.280;2023-12-20T14:45:49;7.40;99.90
56103;DHT22;41970;48.774;9.280;2023-12-20T14:48:16;7.40;99.90
56103;DHT22;41970;48.774;9.280;2023-12-20T14:50:42;7.30;99.90
56103;DHT22;41970;48.774;9.280;2023-12-20T14:53:08;7.10;99.90
56103;DHT22;41970;48.774;9.280;2023-12-20T14:55:34;7.10;99.90
56103;DHT22;41970;48.774;9.280;2023-12-20T14:58:00;7.00;99.90
56103;DHT22;41970;48.774;9.280;2023-12-20T15:00:26;7.00;99.90
56103;DHT22;41970;48.774;9.280;2023-12-20T15:02:52;7.00;99.90
56103;DHT22;41970;48.774;9.280;2023-12-20T15:05:21;7.10;99.90
56103;DHT22;41970;48.774;9.280;2023-12-20T15:07:47;7.20;99.90
56103;DHT22;41970;48.774;9.280;2023-12-20T15:10:15;7.20;99.90
56103;DHT22;41970;48.774;9.280;2023-12-20T15:12:42;7.20;99.90
56103;DHT22;41970;48.774;9.280;2023-12-20T15:15:09;7.20;99.90
56103;DHT22;41970;48.774;9.280;2023-12-20T15:17:35;7.20;99.90
56103;DHT22;41970;48.774;9.280;2023-12-20T15:20:02;7.30;99.90
56103;DHT22;41970;48.774;9.280;2023-12-20T15:22:29;7.30;99.90
56103;DHT22;41970;48.774;9.280;2023-12-20T15:24:55;7.30;99.90
56103;DHT22;41970;48.774;9.280;2023-12-20T15:27:21;7.30;99.90
56103;DHT22;41970;48.774;9.280;2023-12-20T15:29:47;7.30;99.90
56103;DHT22;41970;48.774;9.280;2023-12-20T15:32:15;7.30;99.90
56103;DHT22;41970;48.774;9.280;2023-12-20T15:34:41;7.30;99.90
56103;DHT22;41970;48.774;9.280;2023-12-20T15:37:07;7.40;99.90
56103;DHT22;41970;48.774;9.280;2023-12-20T15:39:33;7.30;99.90
56103;DHT22;41970;48.774;9.280;2023-12-20T15:41:58;7.30;99.90
56103;DHT22;41970;48.774;9.280;2023-12-20T15:44:24;7.20;99.90
56103;DHT22;41970;48.774;9.280;2023-12-20T15:46:51;7.20;99.90
56103;DHT22;41970;48.774;9.280;2023-12-20T15:49:17;7.10;99.90